createdAt,value
2022-09-13T00:02:36.538Z,6.57
2022-09-13T00:05:24.683Z,5.43
2022-09-13T00:08:12.682Z,6.30
2022-09-13T00:11:01.902Z,6.10
2022-09-13T00:13:49.598Z,5.70
2022-09-13T00:16:37.720Z,6.50
2022-09-13T00:19:25.327Z,6.72
2022-09-13T00:22:13.093Z,6.55
2022-09-13T00:25:00.909Z,6.38
2022-09-13T00:27:50.667Z,6.28
2022-09-13T00:30:38.430Z,5.87
2022-09-13T00:33:25.873Z,5.82
2022-09-13T00:36:15.418Z,5.50
2022-09-13T00:39:03.143Z,5.97
2022-09-13T00:41:50.880Z,6.40
2022-09-13T00:44:57.710Z,5.78
2022-09-13T00:47:49.715Z,5.47
2022-09-13T00:50:41.220Z,5.50
2022-09-13T00:53:31.825Z,5.90
2022-09-13T00:56:23.845Z,5.75
2022-09-13T00:59:15.121Z,6.57
2022-09-13T01:02:05.158Z,6.50
2022-09-13T01:04:53.373Z,6.78
2022-09-13T01:07:41.941Z,7.13
2022-09-13T01:10:31.919Z,6.70
2022-09-13T01:13:22.162Z,6.45
2022-09-13T01:16:10.083Z,5.95
2022-09-13T01:18:59.404Z,6.23
2022-09-13T01:22:15.044Z,6.30
2022-09-13T01:25:41.321Z,6.83
2022-09-13T01:28:54.338Z,6.50
2022-09-13T01:31:51.545Z,6.10
2022-09-13T01:34:51.600Z,7.33
2022-09-13T01:37:51.653Z,6.20
2022-09-13T01:40:51.339Z,5.50
2022-09-13T01:43:50.677Z,5.97
2022-09-13T01:46:45.984Z,6.83
2022-09-13T01:49:45.047Z,6.13
2022-09-13T01:52:40.534Z,6.60
2022-09-13T01:55:36.033Z,6.63
2022-09-13T01:58:27.810Z,6.53
2022-09-13T02:01:19.507Z,7.47
2022-09-13T02:04:10.693Z,7.37
2022-09-13T02:07:06.707Z,7.00
2022-09-13T02:10:01.178Z,7.53
2022-09-13T02:12:50.907Z,7.10
2022-09-13T02:15:42.924Z,7.67
2022-09-13T02:18:36.031Z,7.78
2022-09-13T02:21:28.142Z,7.70
2022-09-13T02:24:21.218Z,6.97
2022-09-13T02:27:12.425Z,7.47
2022-09-13T02:30:05.831Z,8.17
2022-09-13T02:32:57.495Z,7.35
2022-09-13T02:35:52.291Z,7.45
2022-09-13T02:38:48.186Z,7.23
2022-09-13T02:41:45.842Z,7.37
2022-09-13T02:44:37.635Z,7.63
2022-09-13T02:47:36.980Z,6.97
2022-09-13T02:50:43.297Z,7.72
2022-09-13T02:53:38.498Z,7.40
2022-09-13T02:56:35.617Z,7.27
2022-09-13T02:59:25.919Z,7.13
2022-09-13T03:02:17.581Z,6.53
2022-09-13T03:05:05.752Z,7.43
2022-09-13T03:07:54.139Z,7.67
2022-09-13T03:10:51.158Z,7.87
2022-09-13T03:13:50.572Z,7.43
2022-09-13T03:17:07.420Z,8.45
2022-09-13T03:20:07.186Z,8.13
2022-09-13T03:23:14.215Z,9.10
2022-09-13T03:26:27.724Z,8.05
2022-09-13T03:29:31.788Z,7.57
2022-09-13T03:32:30.020Z,7.50
2022-09-13T03:35:28.991Z,8.77
2022-09-13T03:38:20.480Z,7.47
2022-09-13T03:41:12.357Z,7.47
2022-09-13T03:44:02.924Z,8.20
2022-09-13T03:46:54.400Z,8.40
2022-09-13T03:49:44.327Z,8.80
2022-09-13T03:52:32.426Z,8.23
2022-09-13T03:55:21.500Z,8.13
2022-09-13T03:58:13.249Z,7.60
2022-09-13T04:01:01.444Z,8.68
2022-09-13T04:03:51.471Z,8.30
2022-09-13T04:06:43.786Z,8.32
2022-09-13T04:09:31.817Z,8.27
2022-09-13T04:12:19.933Z,8.40
2022-09-13T04:15:09.115Z,8.67
2022-09-13T04:17:56.805Z,7.80
2022-09-13T04:20:44.372Z,8.07
2022-09-13T04:23:34.321Z,8.63
2022-09-13T04:26:22.253Z,8.93
2022-09-13T04:29:10.041Z,8.23
2022-09-13T04:31:57.927Z,8.23
2022-09-13T04:34:47.855Z,8.33
2022-09-13T04:37:35.423Z,8.73
2022-09-13T04:40:24.579Z,9.20
2022-09-13T04:43:12.552Z,8.47
2022-09-13T04:46:02.248Z,9.30
2022-09-13T04:48:50.623Z,9.43
2022-09-13T04:51:38.812Z,12.38
2022-09-13T04:54:27.487Z,10.27
2022-09-13T04:57:17.077Z,9.60
2022-09-13T05:00:06.345Z,9.20
2022-09-13T05:02:57.360Z,9.00
2022-09-13T05:05:45.198Z,9.65
2022-09-13T05:08:33.588Z,9.18
2022-09-13T05:11:21.534Z,9.90
2022-09-13T05:14:13.150Z,11.55
2022-09-13T05:17:00.597Z,9.77
2022-09-13T05:19:48.149Z,10.80
2022-09-13T05:22:36.065Z,10.20
2022-09-13T05:25:26.039Z,10.10
2022-09-13T05:28:14.114Z,9.55
2022-09-13T05:31:05.236Z,10.60
2022-09-13T05:33:56.416Z,11.48
2022-09-13T05:36:44.275Z,9.40
2022-09-13T05:39:48.482Z,10.15
2022-09-13T05:42:40.601Z,9.65
2022-09-13T05:45:29.265Z,10.70
2022-09-13T05:48:19.248Z,10.07
2022-09-13T05:51:08.841Z,10.80
2022-09-13T05:53:57.549Z,11.43
2022-09-13T05:56:45.235Z,11.65
2022-09-13T05:59:33.223Z,12.77
2022-09-13T06:02:21.503Z,13.07
2022-09-13T06:05:12.045Z,13.07
2022-09-13T06:07:59.634Z,13.32
2022-09-13T06:10:55.951Z,13.07
2022-09-13T06:13:43.788Z,14.43
2022-09-13T06:16:31.722Z,11.88
2022-09-13T06:19:19.820Z,13.10
2022-09-13T06:22:09.005Z,13.65
2022-09-13T06:24:56.544Z,14.60
2022-09-13T06:27:44.150Z,14.23
2022-09-13T06:30:32.002Z,14.45
2022-09-13T06:33:19.736Z,12.88
2022-09-13T06:36:09.871Z,13.32
2022-09-13T06:39:00.783Z,11.95
2022-09-13T06:41:48.537Z,11.07
2022-09-13T06:44:36.623Z,12.32
2022-09-13T06:47:24.524Z,11.27
2022-09-13T06:50:13.883Z,11.32
2022-09-13T06:53:01.792Z,12.02
2022-09-13T06:55:51.035Z,11.15
2022-09-13T06:58:40.081Z,10.30
2022-09-13T07:01:29.308Z,9.98
2022-09-13T07:04:19.494Z,10.43
2022-09-13T07:07:07.335Z,10.07
2022-09-13T07:09:55.195Z,9.57
2022-09-13T07:12:44.389Z,9.65
2022-09-13T07:15:32.426Z,9.90
2022-09-13T07:18:20.160Z,8.93
2022-09-13T07:21:09.499Z,8.38
2022-09-13T07:23:58.067Z,8.65
2022-09-13T07:26:46.842Z,8.13
2022-09-13T07:29:36.142Z,9.32
2022-09-13T07:32:24.055Z,8.13
2022-09-13T07:35:11.837Z,8.15
2022-09-13T07:37:59.671Z,8.00
2022-09-13T07:40:55.127Z,7.45
2022-09-13T07:43:43.098Z,7.13
2022-09-13T07:46:36.520Z,7.10
2022-09-13T07:49:24.621Z,6.80
2022-09-13T07:52:12.348Z,6.18
2022-09-13T07:54:59.833Z,5.75
2022-09-13T07:57:47.810Z,5.95
2022-09-13T08:00:35.737Z,5.65
2022-09-13T08:03:24.858Z,4.88
2022-09-13T08:06:12.788Z,5.25
2022-09-13T08:09:00.478Z,5.00
2022-09-13T08:11:51.843Z,4.60
2022-09-13T08:14:39.949Z,4.63
2022-09-13T08:17:27.354Z,5.32
2022-09-13T08:20:16.579Z,4.72
2022-09-13T08:23:04.253Z,4.93
2022-09-13T08:25:52.150Z,5.10
2022-09-13T08:28:41.669Z,4.60
2022-09-13T08:31:29.828Z,5.00
2022-09-13T08:34:18.240Z,4.85
2022-09-13T08:37:07.370Z,4.57
2022-09-13T08:39:55.264Z,4.82
2022-09-13T08:42:59.763Z,4.53
2022-09-13T08:45:51.858Z,4.15
2022-09-13T08:48:46.230Z,4.43
2022-09-13T08:51:37.731Z,4.75
2022-09-13T08:54:26.958Z,4.50
2022-09-13T08:57:19.918Z,4.20
2022-09-13T09:00:29.350Z,3.80
2022-09-13T09:03:29.281Z,4.60
2022-09-13T09:06:18.326Z,4.45
2022-09-13T09:09:09.943Z,4.68
2022-09-13T09:12:08.441Z,4.47
2022-09-13T09:15:02.015Z,4.25
2022-09-13T09:17:56.721Z,3.83
2022-09-13T09:20:47.327Z,4.18
2022-09-13T09:23:39.554Z,3.90
2022-09-13T09:26:29.225Z,3.83
2022-09-13T09:29:25.598Z,3.55
2022-09-13T09:32:26.183Z,4.07
2022-09-13T09:35:25.281Z,3.60
2022-09-13T09:38:31.352Z,3.88
2022-09-13T09:41:27.391Z,3.97
2022-09-13T09:44:19.902Z,3.63
2022-09-13T09:47:15.681Z,3.60
2022-09-13T09:50:13.134Z,3.88
2022-09-13T09:53:06.541Z,4.10
2022-09-13T09:55:59.400Z,3.65
2022-09-13T09:58:47.809Z,3.65
2022-09-13T10:01:40.118Z,3.78
2022-09-13T10:04:30.153Z,3.22
2022-09-13T10:07:28.133Z,3.05
2022-09-13T10:10:24.400Z,3.65
2022-09-13T10:13:18.445Z,3.55
2022-09-13T10:16:08.143Z,3.42
2022-09-13T10:18:56.472Z,3.83
2022-09-13T10:22:01.615Z,3.67
2022-09-13T10:24:50.460Z,4.10
2022-09-13T10:27:43.916Z,3.60
2022-09-13T10:30:36.889Z,3.60
2022-09-13T10:33:31.195Z,3.85
2022-09-13T10:36:48.171Z,3.88
2022-09-13T10:39:36.279Z,4.50
2022-09-13T10:42:26.636Z,4.35
2022-09-13T10:45:23.482Z,4.18
2022-09-13T10:48:15.607Z,4.43
2022-09-13T10:51:07.606Z,4.20
2022-09-13T10:54:10.501Z,4.03
2022-09-13T10:56:59.783Z,4.00
2022-09-13T10:59:54.829Z,3.60
2022-09-13T11:03:01.093Z,4.07
2022-09-13T11:05:54.402Z,3.35
2022-09-13T11:08:51.736Z,4.10
2022-09-13T11:11:45.830Z,3.55
2022-09-13T11:14:48.206Z,3.53
2022-09-13T11:18:07.729Z,3.60
2022-09-13T11:21:05.642Z,3.25
2022-09-13T11:24:23.041Z,6.88
2022-09-13T11:27:19.636Z,3.30
2022-09-13T11:30:15.606Z,3.25
2022-09-13T11:33:17.173Z,3.40
2022-09-13T11:36:39.907Z,3.60
2022-09-13T11:39:33.475Z,3.30
2022-09-13T11:42:35.719Z,3.50
2022-09-13T11:45:27.463Z,3.17
2022-09-13T11:48:30.648Z,6.88
2022-09-13T11:51:27.030Z,3.90
2022-09-13T11:54:25.351Z,5.20
2022-09-13T11:57:16.589Z,3.25
2022-09-13T12:00:21.718Z,3.20
2022-09-13T12:03:18.848Z,3.00
2022-09-13T12:06:13.361Z,3.35
2022-09-13T12:09:07.125Z,3.33
2022-09-13T12:11:59.450Z,3.35
2022-09-13T12:14:52.078Z,3.50
2022-09-13T12:17:44.007Z,3.70
2022-09-13T12:20:37.944Z,3.40
2022-09-13T12:23:31.717Z,3.78
2022-09-13T12:26:23.347Z,3.60
2022-09-13T12:29:18.887Z,3.92
2022-09-13T12:32:08.470Z,3.60
2022-09-13T12:35:02.003Z,3.83
2022-09-13T12:38:16.423Z,3.40
2022-09-13T12:41:19.999Z,3.53
2022-09-13T12:44:25.266Z,3.33
2022-09-13T12:47:45.784Z,3.97
2022-09-13T12:50:46.207Z,4.07
2022-09-13T12:54:05.799Z,3.60
2022-09-13T12:57:04.156Z,3.90
2022-09-13T13:00:11.170Z,3.88
2022-09-13T13:03:11.700Z,3.72
2022-09-13T13:06:10.779Z,4.10
2022-09-13T13:09:03.073Z,3.28
2022-09-13T13:11:53.588Z,4.00
2022-09-13T13:14:53.404Z,3.58
2022-09-13T13:17:47.621Z,3.85
2022-09-13T13:21:06.353Z,3.15
2022-09-13T13:24:31.252Z,4.03
2022-09-13T13:27:48.424Z,3.55
2022-09-13T13:30:52.538Z,3.88
2022-09-13T13:33:49.848Z,3.60
2022-09-13T13:36:46.706Z,3.92
2022-09-13T13:39:39.917Z,4.30
2022-09-13T13:42:29.545Z,3.55
2022-09-13T13:45:25.437Z,4.10
2022-09-13T13:48:16.257Z,3.65
2022-09-13T13:51:25.825Z,3.78
2022-09-13T13:54:32.053Z,3.88
2022-09-13T13:57:25.588Z,4.10
2022-09-13T14:00:15.360Z,3.78
2022-09-13T14:03:18.207Z,3.95
2022-09-13T14:06:15.893Z,4.10
2022-09-13T14:09:09.815Z,3.80
2022-09-13T14:12:18.544Z,4.32
2022-09-13T14:15:28.966Z,4.20
2022-09-13T14:18:53.972Z,3.75
2022-09-13T14:21:42.585Z,4.15
2022-09-13T14:24:30.522Z,4.07
2022-09-13T14:27:21.393Z,4.30
2022-09-13T14:30:20.524Z,4.03
2022-09-13T14:33:20.045Z,4.00
2022-09-13T14:36:18.322Z,4.22
2022-09-13T14:39:10.194Z,4.10
2022-09-13T14:42:03.463Z,4.45
2022-09-13T14:44:51.334Z,3.85
2022-09-13T14:47:49.635Z,3.95
2022-09-13T14:50:43.163Z,4.20
2022-09-13T14:53:35.064Z,4.28
2022-09-13T14:56:34.165Z,4.05
2022-09-13T14:59:28.467Z,4.10
2022-09-13T15:02:20.986Z,4.03
2022-09-13T15:05:15.607Z,4.13
2022-09-13T15:08:26.719Z,4.25
2022-09-13T15:11:27.983Z,3.78
2022-09-13T15:14:27.914Z,4.10
2022-09-13T15:17:15.605Z,4.53
2022-09-13T15:20:06.443Z,3.40
2022-09-13T15:22:54.237Z,4.10
2022-09-13T15:25:42.209Z,4.38
2022-09-13T15:28:34.758Z,4.53
2022-09-13T15:31:24.645Z,4.22
2022-09-13T15:34:13.875Z,4.22
2022-09-13T15:37:11.243Z,4.00
2022-09-13T15:40:21.673Z,4.13
2022-09-13T15:43:09.604Z,4.07
2022-09-13T15:46:01.601Z,4.53
2022-09-13T15:48:53.718Z,3.90
2022-09-13T15:51:44.504Z,4.10
2022-09-13T15:54:34.484Z,4.28
2022-09-13T15:57:25.392Z,4.00
2022-09-13T16:00:17.690Z,3.95
2022-09-13T16:03:06.694Z,4.20
2022-09-13T16:05:54.849Z,3.70
2022-09-13T16:08:42.760Z,4.30
2022-09-13T16:11:31.086Z,4.40
2022-09-13T16:14:20.177Z,4.82
2022-09-13T16:17:11.835Z,4.43
2022-09-13T16:20:01.237Z,4.18
2022-09-13T16:22:48.859Z,4.32
2022-09-13T16:25:37.807Z,4.13
2022-09-13T16:28:26.245Z,4.90
2022-09-13T16:31:15.111Z,5.22
2022-09-13T16:34:03.210Z,4.53
2022-09-13T16:36:52.057Z,4.95
2022-09-13T16:39:39.942Z,4.63
2022-09-13T16:42:28.071Z,4.57
2022-09-13T16:45:15.659Z,4.72
2022-09-13T16:48:04.280Z,4.75
2022-09-13T16:50:52.844Z,5.13
2022-09-13T16:53:43.816Z,4.53
2022-09-13T16:56:32.182Z,4.38
2022-09-13T16:59:20.056Z,4.88
2022-09-13T17:02:07.710Z,4.70
2022-09-13T17:04:55.796Z,4.70
2022-09-13T17:07:43.384Z,4.80
2022-09-13T17:10:32.686Z,4.43
2022-09-13T17:13:20.533Z,5.00
2022-09-13T17:16:20.242Z,5.30
2022-09-13T17:19:10.297Z,5.25
2022-09-13T17:21:59.161Z,5.30
2022-09-13T17:24:46.687Z,5.55
2022-09-13T17:27:35.645Z,6.25
2022-09-13T17:30:23.413Z,5.38
2022-09-13T17:33:11.685Z,5.30
2022-09-13T17:36:03.651Z,5.03
2022-09-13T17:38:56.461Z,5.18
2022-09-13T17:41:44.305Z,4.88
2022-09-13T17:44:33.365Z,5.30
2022-09-13T17:47:21.419Z,5.05
2022-09-13T17:50:10.026Z,5.15
2022-09-13T17:52:57.917Z,4.88
2022-09-13T17:55:48.588Z,5.20
2022-09-13T17:58:36.970Z,5.40
2022-09-13T18:01:26.106Z,5.13
2022-09-13T18:04:14.605Z,5.32
2022-09-13T18:07:02.324Z,5.20
2022-09-13T18:09:49.995Z,5.55
2022-09-13T18:12:37.792Z,5.32
2022-09-13T18:15:25.529Z,5.55
2022-09-13T18:18:14.742Z,5.05
2022-09-13T18:21:03.275Z,5.85
2022-09-13T18:23:52.427Z,5.30
2022-09-13T18:26:40.402Z,5.10
2022-09-13T18:29:28.962Z,5.80
2022-09-13T18:32:16.542Z,4.95
2022-09-13T18:35:06.472Z,4.95
2022-09-13T18:37:53.986Z,4.75
2022-09-13T18:40:42.067Z,5.28
2022-09-13T18:43:30.179Z,5.10
2022-09-13T18:46:23.830Z,5.50
2022-09-13T18:49:12.075Z,5.75
2022-09-13T18:52:00.791Z,6.05
2022-09-13T18:54:48.229Z,5.32
2022-09-13T18:57:35.976Z,5.20
2022-09-13T19:00:24.349Z,4.45
2022-09-13T19:03:12.924Z,5.10
2022-09-13T19:06:14.854Z,4.70
2022-09-13T19:09:05.455Z,4.90
2022-09-13T19:11:55.149Z,5.20
2022-09-13T19:14:42.854Z,4.65
2022-09-13T19:17:30.293Z,4.40
2022-09-13T19:20:19.437Z,5.03
2022-09-13T19:23:07.074Z,5.75
2022-09-13T19:25:56.162Z,5.18
2022-09-13T19:28:47.809Z,5.47
2022-09-13T19:31:37.367Z,4.90
2022-09-13T19:34:25.165Z,4.65
2022-09-13T19:37:13.145Z,5.40
2022-09-13T19:40:01.048Z,5.15
2022-09-13T19:42:49.969Z,4.95
2022-09-13T19:45:37.555Z,4.80
2022-09-13T19:48:38.251Z,5.03
2022-09-13T19:51:28.643Z,4.55
2022-09-13T19:54:18.903Z,5.53
2022-09-13T19:57:07.778Z,5.22
2022-09-13T19:59:56.791Z,5.05
2022-09-13T20:02:44.465Z,4.90
2022-09-13T20:05:33.955Z,5.18
2022-09-13T20:08:24.914Z,5.28
2022-09-13T20:11:14.287Z,5.30
2022-09-13T20:14:03.961Z,5.30
2022-09-13T20:16:54.460Z,5.60
2022-09-13T20:19:47.592Z,5.40
2022-09-13T20:22:37.341Z,5.38
2022-09-13T20:25:24.887Z,6.35
2022-09-13T20:28:12.759Z,5.93
2022-09-13T20:31:01.935Z,6.35
2022-09-13T20:33:55.981Z,5.65
2022-09-13T20:36:47.109Z,5.88
2022-09-13T20:39:35.204Z,5.70
2022-09-13T20:42:22.597Z,5.50
2022-09-13T20:45:11.049Z,5.38
2022-09-13T20:47:58.946Z,5.90
2022-09-13T20:50:57.232Z,5.53
2022-09-13T20:53:45.161Z,5.75
2022-09-13T20:56:34.593Z,5.60
2022-09-13T20:59:22.792Z,5.28
2022-09-13T21:02:11.189Z,6.45
2022-09-13T21:04:59.781Z,5.63
2022-09-13T21:08:06.236Z,5.82
2022-09-13T21:10:57.762Z,5.47
2022-09-13T21:13:47.941Z,6.50
2022-09-13T21:16:37.662Z,6.15
2022-09-13T21:19:26.719Z,6.47
2022-09-13T21:22:14.755Z,6.82
2022-09-13T21:25:03.999Z,6.40
2022-09-13T21:27:52.007Z,7.03
2022-09-13T21:30:40.797Z,6.00
2022-09-13T21:33:28.956Z,6.13
2022-09-13T21:36:16.987Z,6.40
2022-09-13T21:39:05.811Z,6.28
2022-09-13T21:41:54.777Z,6.18
2022-09-13T21:44:42.498Z,7.00
2022-09-13T21:47:30.456Z,6.55
2022-09-13T21:50:17.949Z,7.65
2022-09-13T21:53:05.570Z,7.82
2022-09-13T21:55:53.354Z,7.57
2022-09-13T21:58:42.652Z,7.22
2022-09-13T22:01:32.423Z,6.57
2022-09-13T22:04:22.417Z,6.90
2022-09-13T22:07:10.257Z,6.85
2022-09-13T22:09:58.807Z,6.78
2022-09-13T22:12:46.238Z,6.65
2022-09-13T22:15:37.451Z,6.95
2022-09-13T22:18:25.052Z,6.93
2022-09-13T22:21:14.730Z,6.65
2022-09-13T22:24:05.026Z,7.25
2022-09-13T22:26:55.402Z,6.82
2022-09-13T22:29:44.085Z,6.57
2022-09-13T22:32:33.381Z,6.35
2022-09-13T22:35:21.281Z,6.85
2022-09-13T22:38:09.456Z,7.03
2022-09-13T22:40:57.990Z,7.03
2022-09-13T22:43:46.603Z,7.18
2022-09-13T22:46:36.332Z,7.93
2022-09-13T22:49:25.814Z,6.90
2022-09-13T22:52:13.492Z,6.45
2022-09-13T22:55:01.385Z,6.32
2022-09-13T22:57:48.958Z,6.47
2022-09-13T23:00:36.809Z,7.38
2022-09-13T23:03:24.696Z,7.07
2022-09-13T23:06:16.117Z,7.78
2022-09-13T23:09:05.947Z,7.50
2022-09-13T23:11:53.397Z,7.88
2022-09-13T23:14:41.079Z,8.50
2022-09-13T23:17:28.747Z,8.63
2022-09-13T23:20:16.502Z,6.80
2022-09-13T23:23:05.919Z,6.05
2022-09-13T23:25:53.814Z,6.50
2022-09-13T23:28:42.127Z,6.38
2022-09-13T23:31:32.389Z,6.05
2022-09-13T23:34:20.740Z,6.35
2022-09-13T23:37:08.728Z,6.63
2022-09-13T23:39:58.343Z,6.10
2022-09-13T23:42:45.854Z,6.63
2022-09-13T23:45:33.505Z,7.20
2022-09-13T23:48:21.550Z,6.07
2022-09-13T23:51:11.905Z,6.20
2022-09-13T23:54:01.198Z,6.30
2022-09-13T23:56:50.511Z,7.15
2022-09-13T23:59:38.265Z,6.70
